Latest Weather Observations for Shark Bay Airport

IDW60801

Issued at 4:05 pm WST Saturday 29 November 2014 (issued every 30 minutes, with the page automatically refreshed every 10 minutes)

About weather observations | Map of weather stations | Latest weather observations for WA | Other Formats
Station Details ID: 006105 Name: SHARK BAY AIRPORT Lat: -25.89 Lon: 113.58 Height: 33.8 m
Data from the previous 72 hours. | See also: Recent months for locations in Western Australia
Date/Time
WST
Temp
°C
App
Temp
°C
Dew
Point
Rel
Hum
%
Delta-T
°C
Wind Press
QNH
hPa
Press
MSL
hPa
Rain
since 9 am
mm
Dir
 
Spd
km/h
Gust
km/h
Spd
kts
Gust
kts
29/04:00pm 26.5 21.7 14.6 48 7.1 SSW 33 44 18 24 1010.4 1010.3 0.0
29/03:30pm 27.1 22.7 15.1 47 7.3 SSW 32 43 17 23 1010.5 1010.4 0.0
29/03:00pm 27.4 22.4 14.1 44 8.0 SSW 33 46 18 25 1010.5 1010.4 0.0
29/02:30pm 28.5 24.7 14.7 43 8.4 SSW 28 37 15 20 1010.7 1010.6 0.0
29/02:00pm 28.4 24.1 13.1 39 9.0 SSW 28 37 15 20 1010.9 1010.8 0.0
29/01:30pm 28.5 24.3 12.4 37 9.4 SW 26 37 14 20 1011.1 1011.0 0.0
29/01:00pm 28.0 24.2 13.5 41 8.6 SSW 26 35 14 19 1011.4 1011.3 0.0
29/12:30pm 28.2 24.1 13.7 41 8.6 SSW 28 35 15 19 1011.7 1011.6 0.0
29/12:00pm 27.2 22.7 13.9 44 7.9 SW 30 39 16 21 1011.9 1011.8 0.0
29/11:30am 27.5 24.8 13.4 41 8.3 S 20 32 11 17 1012.0 1011.9 0.0
29/11:00am 27.5 24.7 13.1 41 8.5 S 20 32 11 17 1012.4 1012.3 0.0
29/10:30am 26.3 22.8 13.4 45 7.6 S 24 35 13 19 1012.8 1012.7 0.0
29/10:00am 25.5 21.7 13.7 48 7.0 S 26 39 14 21 1012.9 1012.8 0.0
29/09:31am 24.8 20.7 13.7 50 6.5 S 28 46 15 25 1013.0 1012.9 0.0
29/09:30am 24.9 21.2 13.8 50 6.5 S 26 46 14 25 1013.0 1012.9 0.0
29/09:00am 24.1 20.2 13.3 51 6.3 S 26 39 14 21 1013.1 1013.0 0.0
29/08:30am 22.9 18.7 13.4 55 5.5 S 28 41 15 22 1013.3 1013.2 0.0
29/08:00am 22.3 17.7 13.6 58 5.0 SSE 30 43 16 23 1013.2 1013.1 0.0
29/07:30am 21.8 17.7 13.7 60 4.7 SSE 28 39 15 21 1013.2 1013.1 0.0
29/07:00am 20.9 16.8 13.8 64 4.1 SSE 28 39 15 21 1013.4 1013.3 0.0
29/06:30am 19.8 17.4 14.4 71 3.1 SSE 20 30 11 16 1013.3 1013.2 0.0
29/06:00am 18.3 16.8 14.2 77 2.4 SSE 15 20 8 11 1012.9 1012.8 0.0
29/05:30am 17.7 16.4 13.8 78 2.2 SSE 13 17 7 9 1012.6 1012.5 0.0
29/05:00am 18.0 16.4 13.9 77 2.3 SSE 15 20 8 11 1012.3 1012.2 0.0
29/04:30am 18.4 16.4 13.9 75 2.6 SSE 17 20 9 11 1012.1 1012.0 0.0
29/04:00am 18.9 16.4 14.0 73 2.8 SSE 20 30 11 16 1012.1 1012.0 0.0
29/03:30am 19.4 17.0 14.4 73 2.9 SSE 20 30 11 16 1012.1 1012.0 0.0
29/03:00am 19.7 17.6 14.7 73 2.9 SSE 19 24 10 13 1012.0 1011.9 0.0
29/02:30am 20.1 17.1 14.9 72 3.1 S 24 33 13 18 1012.1 1012.0 0.0
29/02:00am 20.7 18.7 15.5 72 3.1 S 20 32 11 17 1012.1 1012.0 0.0
29/01:30am 20.2 18.6 16.0 77 2.5 S 19 26 10 14 1012.2 1012.1 0.0
29/01:00am 20.4 18.1 15.8 75 2.7 S 22 32 12 17 1012.4 1012.3 0.0
29/12:30am 20.8 18.3 16.2 75 2.8 S 24 35 13 19 1012.6 1012.5 0.0
29/12:00am 21.1 18.3 16.3 74 2.9 S 26 39 14 21 1012.8 1012.7 0.0
 
Date/Time
WST
Temp
°C
App
Temp
°C
Dew
Point
Rel
Hum
%
Delta-T
°C
Wind Press
QNH
hPa
Press
MSL
hPa
Rain
since 9 am
mm
Dir
 
Spd
km/h
Gust
km/h
Spd
kts
Gust
kts
28/11:30pm 21.5 19.1 17.3 77 2.6 S 26 37 14 20 1012.9 1012.8 0.0
28/11:00pm 21.2 19.5 17.2 78 2.5 S 22 32 12 17 1013.3 1013.2 0.0
28/10:30pm 21.4 18.6 17.2 77 2.6 S 28 39 15 21 1013.3 1013.2 0.0
28/10:00pm 21.6 18.8 17.4 77 2.6 S 28 41 15 22 1013.4 1013.3 0.0
28/09:30pm 21.8 19.0 17.4 76 2.7 S 28 39 15 21 1013.4 1013.3 0.0
28/09:00pm 22.1 19.1 17.7 76 2.7 S 30 41 16 22 1013.1 1013.0 0.0
28/08:30pm 22.2 19.0 17.3 74 3.0 S 30 39 16 21 1012.9 1012.8 0.0
28/08:00pm 22.5 19.2 17.0 71 3.4 SSW 30 44 16 24 1012.7 1012.6 0.0
28/07:30pm 22.9 19.6 16.9 69 3.7 SSW 30 39 16 21 1012.5 1012.4 0.0
28/07:00pm 23.3 20.2 16.6 66 4.1 SSW 28 39 15 21 1012.3 1012.2 0.0
28/06:30pm 24.2 21.5 16.5 62 4.7 SSW 26 33 14 18 1012.3 1012.2 0.0
28/06:00pm 25.3 22.8 16.2 57 5.6 SSW 24 35 13 19 1011.9 1011.8 0.0
28/05:30pm 25.4 22.7 16.5 58 5.5 SW 26 39 14 21 1011.4 1011.3 0.0
28/05:00pm 25.7 22.0 16.0 55 5.9 SW 30 39 16 21 1011.3 1011.2 0.0
28/04:30pm 26.5 22.7 15.8 51 6.5 SW 30 39 16 21 1011.5 1011.4 0.0
28/04:00pm 26.9 23.4 14.6 46 7.4 SW 26 39 14 21 1011.4 1011.3 0.0
28/03:30pm 27.2 23.1 13.9 44 7.9 SW 28 39 15 21 1011.6 1011.5 0.0
28/03:00pm 28.1 25.1 14.7 44 8.1 WSW 24 35 13 19 1011.7 1011.6 0.0
28/02:30pm 27.5 24.1 13.8 43 8.2 SW 24 39 13 21 1011.8 1011.7 0.0
28/02:00pm 28.1 25.1 14.7 44 8.1 WSW 24 35 13 19 1011.9 1011.8 0.0
28/01:30pm 27.5 24.8 13.4 41 8.3 SW 20 35 11 19 1012.0 1011.9 0.0
28/01:00pm 28.2 25.1 13.3 40 8.8 SW 22 32 12 17 1012.3 1012.2 0.0
28/12:30pm 28.1 25.5 13.2 39 8.8 WSW 19 33 10 18 1012.5 1012.4 0.0
28/12:00pm 28.0 25.2 13.1 39 8.8 WSW 20 28 11 15 1012.7 1012.6 0.0
28/11:30am 26.2 23.4 13.3 45 7.6 SW 20 30 11 16 1012.9 1012.8 0.0
28/11:00am 26.3 23.2 14.4 48 7.1 SW 24 32 13 17 1012.9 1012.8 0.0
28/10:30am 26.2 24.2 15.6 52 6.5 SSW 20 32 11 17 1013.1 1013.0 0.0
28/10:00am 26.0 24.4 16.0 54 6.1 SW 19 32 10 17 1013.0 1012.9 0.0
28/09:30am 26.3 24.5 15.4 51 6.6 SW 19 28 10 15 1013.2 1013.1 0.0
28/09:00am 25.0 23.3 14.8 53 6.1 SSW 17 30 9 16 1013.3 1013.2 0.0
28/08:30am 24.3 22.4 15.8 59 5.2 SW 20 28 11 15 1013.2 1013.1 0.0
28/08:00am 23.3 21.7 15.9 63 4.5 SW 19 24 10 13 1013.1 1013.0 0.0
28/07:30am 22.8 21.4 15.6 64 4.3 SW 17 22 9 12 1012.8 1012.7 0.0
28/07:00am 22.7 21.7 15.5 64 4.3 SW 15 22 8 12 1012.5 1012.4 0.0
28/06:30am 22.7 21.1 15.0 61 4.6 SW 17 26 9 14 1012.1 1012.0 0.0
28/06:00am 22.2 20.9 15.8 67 3.9 SW 17 24 9 13 1011.9 1011.8 0.0
28/05:30am 21.9 21.0 16.8 73 3.1 SSW 17 24 9 13 1011.7 1011.6 0.0
28/05:00am 21.9 21.9 17.1 74 2.9 SW 13 19 7 10 1011.6 1011.5 0.0
28/04:30am 22.1 21.3 17.0 73 3.1 WSW 17 22 9 12 1011.2 1011.1 0.0
28/04:00am 22.1 21.3 17.0 73 3.1 SSW 17 20 9 11 1011.0 1010.9 0.0
28/03:30am 22.1 21.9 16.8 72 3.2 SSW 13 19 7 10 1010.9 1010.8 0.0
28/03:00am 22.2 22.2 17.1 73 3.1 WSW 13 17 7 9 1010.5 1010.4 0.0
28/02:30am 22.3 21.7 16.6 70 3.5 WSW 15 19 8 10 1010.3 1010.2 0.0
28/02:00am 22.2 21.5 16.5 70 3.5 SW 15 20 8 11 1010.4 1010.3 0.0
28/01:30am 21.9 21.5 17.1 74 2.9 WSW 15 19 8 10 1010.5 1010.4 0.0
28/01:00am 21.9 21.2 17.3 75 2.8 WSW 17 22 9 12 1010.7 1010.6 0.0
28/12:30am 22.0 21.0 17.6 76 2.7 WSW 19 30 10 16 1010.6 1010.5 0.0
28/12:00am 21.6 21.1 17.8 79 2.4 W 17 24 9 13 1010.6 1010.5 0.0
 
Date/Time
WST
Temp
°C
App
Temp
°C
Dew
Point
Rel
Hum
%
Delta-T
°C
Wind Press
QNH
hPa
Press
MSL
hPa
Rain
since 9 am
mm
Dir
 
Spd
km/h
Gust
km/h
Spd
kts
Gust
kts
27/11:30pm 22.0 21.1 18.2 79 2.4 WSW 20 28 11 15 1010.7 1010.6 0.0
27/11:00pm 21.4 20.5 17.8 80 2.2 WSW 19 24 10 13 1010.8 1010.7 0.0
27/10:30pm 21.9 19.9 17.5 76 2.7 WSW 24 30 13 16 1010.7 1010.6 0.0
27/10:00pm 22.4 21.2 18.4 78 2.5 WSW 22 30 12 16 1010.8 1010.7 0.0
27/09:30pm 22.0 21.0 18.0 78 2.5 W 20 28 11 15 1010.9 1010.8 0.0
27/09:00pm 22.0 21.0 18.0 78 2.5 W 20 28 11 15 1010.7 1010.6 0.0
27/08:30pm 22.1 21.1 17.9 77 2.6 W 20 26 11 14 1010.6 1010.5 0.0
27/08:00pm 22.3 20.7 17.4 74 3.0 W 22 30 12 16 1010.5 1010.4 0.0
27/07:30pm 22.4 21.1 17.3 73 3.1 W 20 28 11 15 1010.3 1010.2 0.0
27/07:00pm 23.0 21.6 17.0 69 3.7 W 20 28 11 15 1010.1 1009.9 0.0
27/06:30pm 23.7 21.5 17.0 66 4.1 W 24 30 13 16 1009.7 1009.5 0.0
27/06:00pm 24.7 22.3 16.4 60 5.1 W 24 32 13 17 1009.5 1009.3 0.0
27/05:30pm 25.6 22.9 16.7 58 5.5 W 26 33 14 18 1009.2 1009.0 0.0
27/05:00pm 26.2 23.4 16.4 54 6.1 W 26 35 14 19 1009.0 1008.8 0.0
27/04:30pm 26.7 24.1 16.0 52 6.6 W 24 32 13 17 1009.1 1008.9 0.0
27/04:00pm 27.0 24.3 15.7 50 6.9 W 24 32 13 17 1009.1 1008.9 0.0
27/03:30pm 28.2 25.7 16.1 47 7.5 W 24 33 13 18 1009.2 1009.0 0.0
27/03:00pm 27.6 24.6 14.9 45 7.7 W 24 33 13 18 1009.3 1009.1 0.0
27/02:30pm 28.0 25.4 16.0 48 7.4 W 24 33 13 18 1009.4 1009.2 0.0
27/02:00pm 28.6 26.1 16.2 47 7.7 W 24 37 13 20 1009.6 1009.4 0.0
27/01:30pm 28.2 25.8 16.5 49 7.3 W 24 37 13 20 1009.6 1009.4 0.0
27/01:00pm 28.9 26.0 16.1 46 7.9 WNW 26 37 14 20 1009.9 1009.7 0.0
27/12:30pm 29.0 25.8 15.2 43 8.4 WNW 26 37 14 20 1010.0 1009.8 0.0
27/12:00pm 28.6 25.7 15.2 44 8.2 WNW 24 35 13 19 1010.1 1009.9 0.0
27/11:30am 28.2 25.7 14.1 42 8.5 W 20 26 11 14 1010.3 1010.2 0.0
27/11:00am 28.9 26.5 14.3 40 8.8 WNW 20 30 11 16 1010.3 1010.2 0.0
27/10:30am 27.7 25.0 13.6 42 8.4 WNW 20 32 11 17 1010.4 1010.3 0.0
27/10:00am 27.4 23.5 13.4 42 8.3 WNW 26 37 14 20 1010.6 1010.5 0.0
27/09:30am 26.8 23.8 14.9 48 7.2 WNW 24 33 13 18 1010.4 1010.3 0.0
27/09:00am 26.0 22.6 14.8 50 6.7 WNW 26 33 14 18 1010.3 1010.2 0.0
27/08:30am 26.3 24.1 16.0 53 6.3 WNW 22 33 12 18 1010.0 1009.8 0.0
27/08:00am 25.3 23.7 16.4 57 5.5 NW 20 26 11 14 1010.1 1009.9 0.0
27/07:30am 24.0 21.7 15.8 60 5.0 NNW 22 30 12 16 1009.9 1009.7 0.0
27/07:00am 23.0 21.7 17.2 70 3.6 NW 20 28 11 15 1009.5 1009.3 0.0
27/06:30am 21.2 21.5 18.0 82 2.0 NW 13 20 7 11 1009.4 1009.2 0.0
27/06:00am 19.1 17.2 16.7 86 1.4 NW 22 28 12 15 1009.0 1008.8 0.0
27/05:30am 18.7 18.5 16.7 88 1.2 N 13 17 7 9 1009.0 1008.8 0.0
27/05:00am 18.0 17.4 15.6 86 1.4 NNW 13 15 7 8 1008.8 1008.6 0.0
27/04:30am 19.0 18.7 16.4 85 1.6 N 13 17 7 9 1008.7 1008.5 0.0
27/04:00am 19.6 19.4 16.8 84 1.7 N 13 17 7 9 1008.6 1008.4 0.0
27/03:30am 19.4 19.0 16.2 82 1.9 N 13 17 7 9 1008.7 1008.5 0.0
27/03:00am 19.7 19.1 16.7 83 1.8 N 15 17 8 9 1008.7 1008.5 0.0
27/02:30am 19.9 19.6 16.5 81 2.0 N 13 17 7 9 1008.8 1008.6 0.0
27/02:00am 19.0 18.9 15.9 82 1.8 N 11 13 6 7 1009.1 1008.9 0.0
27/01:30am 19.1 18.6 15.8 81 2.0 N 13 15 7 8 1009.3 1009.1 0.0
27/01:00am 19.3 19.1 15.6 79 2.2 N 11 13 6 7 1009.7 1009.5 0.0
27/12:30am 19.5 19.0 16.0 80 2.1 N 13 15 7 8 1010.0 1009.8 0.0
27/12:00am 20.1 20.4 16.1 78 2.4 N 9 11 5 6 1010.2 1010.1 0.0
 
Date/Time
WST
Temp
°C
App
Temp
°C
Dew
Point
Rel
Hum
%
Delta-T
°C
Wind Press
QNH
hPa
Press
MSL
hPa
Rain
since 9 am
mm
Dir
 
Spd
km/h
Gust
km/h
Spd
kts
Gust
kts
26/11:30pm 20.3 20.7 16.3 78 2.4 N 9 11 5 6 1010.6 1010.5 0.0
26/11:00pm 20.5 20.8 16.1 76 2.6 NE 9 11 5 6 1010.7 1010.6 0.0
26/10:30pm 20.7 21.5 16.3 76 2.7 ENE 7 7 4 4 1010.9 1010.8 0.0
26/10:00pm 20.8 22.8 16.0 74 2.9 CALM 0 0 0 0 1011.0 1010.9 0.0
26/09:30pm 21.3 22.4 16.5 74 2.9 SW 6 7 3 4 1010.6 1010.5 0.0
26/09:00pm 21.9 23.0 17.1 74 2.9 WSW 7 11 4 6 1010.2 1010.1 0.0
26/08:30pm 22.4 22.4 17.3 73 3.1 W 13 19 7 10 1009.7 1009.5 0.0
26/08:00pm 22.3 21.5 17.2 73 3.1 W 17 24 9 13 1009.0 1008.8 0.0
26/07:30pm 22.5 20.9 17.4 73 3.2 W 22 28 12 15 1008.2 1008.0 0.0
26/07:00pm 22.8 20.4 17.3 71 3.4 W 26 35 14 19 1007.6 1007.4 0.0
26/06:30pm 23.5 21.2 17.7 70 3.6 W 26 35 14 19 1007.2 1007.0 0.0
26/06:00pm 24.3 20.7 17.1 64 4.5 W 32 43 17 23 1006.9 1006.7 0.0
26/05:30pm 25.0 21.1 16.4 59 5.3 WNW 32 43 17 23 1006.8 1006.6 0.0
26/05:00pm 26.7 22.7 17.5 57 5.8 WNW 35 46 19 25 1006.7 1006.5 0.0
26/04:30pm 27.2 23.8 17.7 56 6.0 WNW 32 43 17 23 1006.7 1006.5 0.0

Other Formats:

Comma delimited format used in spreadsheet applications
http://www.bom.gov.au/fwo/IDW60801/IDW60801.95402.axf

JavaScript Object Notation format (JSON) in row-major order
http://www.bom.gov.au/fwo/IDW60801/IDW60801.95402.json